San Juan, PR (00910)

11:23 PM AST on July 30, 2015 (GMT -0400)
Condado | | Change Station
CLOSE
Current Station
Personal Weather Station
Location: San Juan, SAN JUAN
Elevation: 66 ft
Nearby Weather Stations

Elev 66 ft 18.45 °N, 66.06 °W | Updated 3 seconds ago

Partly Cloudy
Partly Cloudy
82.2 °F
Feels Like 89 °F
N
0.0
Wind Variable Wind from East
Gusts 0.0 mph

Today
High -- | Low -- °F
--% Chance of Precip.
Yesterday
High -- | Low -- °F
Precip. -- in
6:01 AM 6:59 PM
Full, 100% visible
Pressure 30.08 in
Visibility 10.0 miles
Clouds Few 2200 ft
Heat Index 89 °F
Dew Point 74 °F
Humidity 77%
Rainfall in
Snow Depth Not available.
UV 0.0 out of 12
Pollen Not available.
Air Quality Not available.
Flu Activity Not available.
METAR TJSJ 310256Z 09009KT 10SM FEW022 28/24 A3008 RMK AO2 SLP185 T02780244 51016

More Conditions Fewer Conditions

Pressure 30.08 in
Visibility 10.0 miles
Clouds Few 2200 ft
Heat Index 89 °F
Dew Point 74 °F
Humidity 77%
Rainfall in
Snow Depth Not available.
UV 0.0 out of 12
Pollen Not available.
Air Quality Not available.
Flu Activity Not available.
METAR TJSJ 310256Z 09009KT 10SM FEW022 28/24 A3008 RMK AO2 SLP185 T02780244 51016

More Conditions Fewer Conditions

10-Day Weather Forecast

×

Almanac

Astronomy

Jul. 30, 2015 Rise Set
Actual Time
Civil Twilight
Nautical Twilight
Astronomical Twilight
Moon
Length of Visible Light
Length of Day
Tomorrow will be .
, % of the Moon is Illuminated

Today's Extremes

State Highs State Lows

Community

WunderPhotos

Upload Photos

1,842,597 photos uploaded!

WunderBlogs® & News

Nearby

Air Quality

  Air Quality AQ Index Pollutant
Not available.

Snow Depth

Station Depth Elevation

Earthquake Activity

City Distance Mag. Time & Date
Minimum magnitude displayed is 2.5.

Coastal Water Temperatures

Place Temperature

Stations

Nearby Weather Stations

Station Location Temp. Windchill Dew Point Humidity Wind Precip. Elev Updated Type